Time;durP1;ratioP1;P1;durP2;ratioP2;P2;SDS_P1;SDS_P2;PMS_P1;PMS_P2;Temp;Humidity;BMP_temperature;BMP_pressure;BME280_temperature;BME280_humidity;BME280_pressure;Samples;Min_cycle;Max_cycle;Signal;HPM_P1;HPM_P2
2023/05/15 00:01:23;;;;;;;5.77;3.80;;;;;;;13.32;93.12;95132.44;4989251;28;20211;-91
2023/05/15 00:03:53;;;;;;;3.93;3.63;;;;;;;13.35;92.82;95126.84;4988870;28;20222;-89
2023/05/15 00:06:20;;;;;;;4.57;4.17;;;;;;;13.37;91.75;95136.00;4989618;28;20246;-89
2023/05/15 00:08:46;;;;;;;4.70;4.30;;;;;;;13.32;91.81;95135.03;4989163;28;20816;-90
2023/05/15 00:11:13;;;;;;;4.47;4.07;;;;;;;13.33;91.98;95142.56;4992383;28;20727;-90
2023/05/15 00:13:47;;;;;;;4.50;4.13;;;;;;;13.33;91.98;95131.44;5000685;28;20203;-89
2023/05/15 00:16:16;;;;;;;4.90;4.40;;;;;;;13.33;92.27;95127.06;5007748;28;20234;-90
2023/05/15 00:18:44;;;;;;;4.87;4.47;;;;;;;13.29;92.21;95135.41;4989193;28;20290;-90
2023/05/15 00:21:11;;;;;;;5.10;4.60;;;;;;;13.31;91.94;95125.66;4987995;28;20759;-90
2023/05/15 00:23:37;;;;;;;5.43;4.80;;;;;;;13.28;91.80;95116.53;4988560;28;20195;-90
2023/05/15 00:26:04;;;;;;;5.20;4.80;;;;;;;13.29;91.71;95123.28;4989138;28;20830;-89
2023/05/15 00:28:31;;;;;;;5.30;4.80;;;;;;;13.30;91.76;95126.66;4989128;28;20227;-90
2023/05/15 00:31:00;;;;;;;5.50;5.00;;;;;;;13.21;92.49;95117.56;4988447;28;20220;-90
2023/05/15 00:33:26;;;;;;;5.13;4.73;;;;;;;13.21;92.45;95112.41;4989199;28;20203;-90
2023/05/15 00:35:54;;;;;;;5.40;5.00;;;;;;;13.20;92.80;95113.38;4989409;28;20278;-90
2023/05/15 00:38:20;;;;;;;5.37;4.87;;;;;;;13.20;92.41;95114.19;4989059;28;20572;-90
2023/05/15 00:40:47;;;;;;;5.80;5.30;;;;;;;13.20;92.11;95114.19;4988523;28;20595;-90
2023/05/15 00:43:15;;;;;;;5.80;5.27;;;;;;;13.11;92.88;95112.78;4999074;28;20681;-90
2023/05/15 00:45:42;;;;;;;5.67;5.17;;;;;;;13.07;93.61;95111.63;4988322;28;20199;-90
2023/05/15 00:48:10;;;;;;;5.77;5.27;;;;;;;13.12;92.68;95104.81;4988342;28;20268;-91
2023/05/15 00:50:40;;;;;;;6.03;5.53;;;;;;;13.08;92.60;95106.22;4988263;28;20204;-90
2023/05/15 00:53:08;;;;;;;6.67;5.57;;;;;;;13.05;92.84;95101.47;4988460;28;20625;-90
2023/05/15 00:55:37;;;;;;;6.30;5.80;;;;;;;13.10;92.67;95103.44;4988467;28;20200;-90
2023/05/15 00:58:04;;;;;;;6.03;5.43;;;;;;;13.03;92.96;95110.44;4989047;28;20195;-89
2023/05/15 01:00:31;;;;;;;5.93;5.43;;;;;;;13.03;92.71;95107.84;4987867;28;20200;-90
2023/05/15 01:02:59;;;;;;;6.30;5.80;;;;;;;12.99;92.97;95106.66;4987957;28;20195;-90
2023/05/15 01:05:25;;;;;;;6.23;5.70;;;;;;;12.99;93.22;95104.06;4989152;28;20202;-90
2023/05/15 01:08:01;;;;;;;6.37;5.80;;;;;;;13.00;92.61;95106.47;5000145;28;20227;-91
2023/05/15 01:10:29;;;;;;;6.70;6.10;;;;;;;12.98;93.36;95105.88;4999941;28;20580;-90
2023/05/15 01:12:57;;;;;;;7.17;6.10;;;;;;;12.97;93.17;95100.91;4995171;28;20211;-90
2023/05/15 01:15:24;;;;;;;6.53;5.93;;;;;;;13.01;93.31;95108.06;4994635;28;20195;-90
2023/05/15 01:17:51;;;;;;;6.80;6.20;;;;;;;12.97;93.39;95101.69;4981213;28;20658;-90
2023/05/15 01:20:22;;;;;;;6.80;6.20;;;;;;;13.03;92.94;95108.66;4987069;28;20203;-90
2023/05/15 01:23:04;;;;;;;6.10;5.60;;;;;;;13.01;93.29;95104.66;4991982;28;20200;-90
2023/05/15 01:26:06;;;;;;;6.70;6.10;;;;;;;13.02;92.85;95103.69;4994807;28;20222;-90
2023/05/15 01:28:44;;;;;;;7.43;6.73;;;;;;;13.01;93.03;95097.72;4986095;28;20230;-90
2023/05/15 01:31:18;;;;;;;7.87;7.17;;;;;;;13.03;92.61;95103.47;4994927;28;20223;-90
2023/05/15 01:33:46;;;;;;;7.87;7.17;;;;;;;13.05;92.33;95096.31;4995374;28;20214;-90
2023/05/15 01:36:22;;;;;;;8.37;7.37;;;;;;;13.05;92.50;95095.53;4994469;28;20283;-91
2023/05/15 01:38:57;;;;;;;7.70;7.00;;;;;;;13.05;92.75;95095.53;5004549;28;20264;-90
2023/05/15 01:41:28;;;;;;;7.40;6.70;;;;;;;13.06;92.65;95094.53;4975385;28;20223;-90
2023/05/15 01:44:07;;;;;;;8.33;7.47;;;;;;;13.07;92.31;95091.75;4994770;28;20199;-90
2023/05/15 01:46:38;;;;;;;7.83;7.13;;;;;;;13.05;92.31;95093.72;4994766;28;20199;-90
2023/05/15 01:49:09;;;;;;;7.80;7.00;;;;;;;13.00;92.53;95090.94;4994903;28;20224;-90
2023/05/15 01:51:37;;;;;;;8.20;7.27;;;;;;;13.02;92.78;95095.91;4994239;28;20231;-90
2023/05/15 01:54:15;;;;;;;7.67;6.87;;;;;;;13.01;92.51;95097.72;4994672;28;20207;-90
2023/05/15 01:56:44;;;;;;;8.13;7.33;;;;;;;13.07;92.15;95093.53;4994870;28;20199;-90
2023/05/15 01:59:13;;;;;;;7.87;7.17;;;;;;;13.05;92.24;95098.09;4994229;28;20688;-89
2023/05/15 02:01:42;;;;;;;7.93;7.23;;;;;;;12.99;92.63;95096.31;4994024;28;20998;-90
2023/05/15 02:04:16;;;;;;;7.97;7.27;;;;;;;12.99;92.63;95091.94;5002733;28;20298;-90
2023/05/15 02:06:43;;;;;;;8.23;7.43;;;;;;;12.96;93.11;95094.94;5010879;28;20217;-90
2023/05/15 02:09:10;;;;;;;8.50;7.70;;;;;;;12.96;93.12;95091.56;4997882;28;20219;-90
2023/05/15 02:11:37;;;;;;;8.40;7.50;;;;;;;13.02;92.53;95094.13;4994181;28;20223;-90
2023/05/15 02:14:06;;;;;;;8.40;7.60;;;;;;;13.04;92.44;95089.56;4994500;28;20202;-90
2023/05/15 02:16:34;;;;;;;8.00;7.30;;;;;;;13.05;92.45;95091.16;4978559;28;20203;-90
2023/05/15 02:19:01;;;;;;;8.53;7.73;;;;;;;13.03;92.51;95087.19;4990672;28;20195;-90
2023/05/15 02:21:27;;;;;;;8.53;7.80;;;;;;;13.03;92.43;95085.38;4975761;28;20588;-90
2023/05/15 02:23:56;;;;;;;9.33;8.30;;;;;;;12.96;92.61;95084.59;4991690;28;20218;-90
2023/05/15 02:26:35;;;;;;;8.57;7.77;;;;;;;12.93;93.09;95085.00;4991328;28;20829;-90
2023/05/15 02:29:13;;;;;;;7.87;7.17;;;;;;;12.94;93.19;95085.78;4991380;28;20886;-89
2023/05/15 02:31:47;;;;;;;9.10;8.30;;;;;;;12.84;93.75;95088.03;4990808;28;20227;-90
2023/05/15 02:34:18;;;;;;;9.70;8.80;;;;;;;12.86;93.31;95084.25;4993227;28;20214;-91
2023/05/15 02:36:49;;;;;;;14.07;8.33;;;;;;;12.84;93.66;95088.03;4991077;28;20203;-90
2023/05/15 02:39:22;;;;;;;9.03;8.23;;;;;;;12.86;93.34;95083.44;4990681;28;20286;-90
2023/05/15 02:41:57;;;;;;;8.53;7.73;;;;;;;12.84;93.50;95082.84;4990258;28;20223;-90
2023/05/15 02:44:25;;;;;;;8.93;8.13;;;;;;;12.86;93.18;95076.50;4990320;28;20196;-90
2023/05/15 02:46:54;;;;;;;9.20;8.20;;;;;;;12.87;93.04;95083.25;4991061;28;20238;-90
2023/05/15 02:49:22;;;;;;;8.67;7.87;;;;;;;12.86;92.95;95075.69;4990913;28;20231;-90
2023/05/15 02:51:48;;;;;;;9.50;8.57;;;;;;;12.84;92.96;95072.53;4990495;28;20712;-90
2023/05/15 02:54:15;;;;;;;9.57;8.57;;;;;;;12.85;93.13;95079.28;4990894;28;20191;-90
2023/05/15 02:56:41;;;;;;;9.00;8.20;;;;;;;12.83;92.86;95081.25;4991000;28;20206;-90
2023/05/15 02:59:08;;;;;;;9.10;8.30;;;;;;;12.82;93.19;95082.25;4991093;28;20210;-90
2023/05/15 03:01:34;;;;;;;10.53;7.43;;;;;;;12.87;92.92;95080.66;4995981;28;20226;-90
2023/05/15 03:04:02;;;;;;;8.23;7.53;;;;;;;12.85;92.90;95087.81;5007119;28;20203;-91
2023/05/15 03:06:30;;;;;;;8.20;7.40;;;;;;;12.85;92.71;95080.06;4990954;28;20203;-90
2023/05/15 03:08:56;;;;;;;8.70;7.83;;;;;;;12.83;92.94;95084.66;4990150;28;20216;-90
2023/05/15 03:11:28;;;;;;;8.40;7.60;;;;;;;12.86;92.80;95081.66;4989855;28;20281;-90
2023/05/15 03:13:55;;;;;;;8.03;7.27;;;;;;;12.87;92.65;95075.50;4990459;28;20202;-90
2023/05/15 03:16:21;;;;;;;9.60;7.73;;;;;;;12.88;92.61;95071.91;4988263;28;20203;-90
2023/05/15 03:18:48;;;;;;;9.57;8.03;;;;;;;12.84;92.76;95078.47;4971066;28;20208;-90
2023/05/15 03:21:16;;;;;;;8.20;7.40;;;;;;;12.83;92.68;95069.13;4984091;28;20228;-90
2023/05/15 03:23:42;;;;;;;8.03;7.23;;;;;;;12.86;92.51;95070.53;4990085;28;20204;-89
2023/05/15 03:26:09;;;;;;;8.03;7.23;;;;;;;12.86;92.37;95078.28;4990217;28;20207;-90
2023/05/15 03:28:35;;;;;;;8.30;7.50;;;;;;;12.87;92.44;95074.69;4989480;28;20228;-90
2023/05/15 03:31:03;;;;;;;8.63;7.73;;;;;;;12.89;92.57;95068.34;4996927;28;20223;-90
2023/05/15 03:33:30;;;;;;;7.77;7.07;;;;;;;12.87;92.48;95072.91;5010092;28;20690;-90
2023/05/15 03:35:56;;;;;;;7.90;7.20;;;;;;;12.90;92.26;95074.28;5009851;28;20221;-90
2023/05/15 03:38:24;;;;;;;9.30;7.27;;;;;;;12.90;92.23;95072.47;4996398;28;20211;-90
2023/05/15 03:40:52;;;;;;;8.50;7.70;;;;;;;12.91;92.10;95081.03;4989574;28;20298;-90
2023/05/15 03:43:21;;;;;;;7.93;7.23;;;;;;;12.88;92.34;95077.09;4989290;28;20195;-91
2023/05/15 03:45:48;;;;;;;8.60;7.67;;;;;;;12.91;92.39;95081.03;4989686;28;20227;-90
2023/05/15 03:48:14;;;;;;;7.57;6.87;;;;;;;12.89;92.83;95077.88;4990072;28;20581;-90
2023/05/15 03:50:41;;;;;;;7.57;6.90;;;;;;;12.89;92.44;95070.91;4988485;28;20918;-90
2023/05/15 03:53:21;;;;;;;8.47;7.03;;;;;;;12.83;93.06;95074.31;4989631;28;20211;-90
2023/05/15 03:55:49;;;;;;;7.60;6.90;;;;;;;12.87;93.01;95077.28;4990009;28;20245;-90
2023/05/15 03:58:16;;;;;;;8.10;7.30;;;;;;;12.88;93.08;95077.09;4997969;28;20206;-90
2023/05/15 04:00:42;;;;;;;7.77;7.07;;;;;;;12.85;93.31;95079.28;4989004;28;20215;-91
2023/05/15 04:03:09;;;;;;;9.57;7.07;;;;;;;12.82;93.65;95085.63;4989194;28;20200;-90
2023/05/15 04:05:38;;;;;;;7.43;6.73;;;;;;;12.80;93.68;95078.09;4988805;28;20787;-89
2023/05/15 04:08:05;;;;;;;7.97;7.27;;;;;;;12.80;93.99;95082.47;4989072;28;20208;-89
2023/05/15 04:10:32;;;;;;;7.93;7.23;;;;;;;12.83;94.07;95076.09;4989035;28;20224;-89
2023/05/15 04:13:04;;;;;;;7.67;6.93;;;;;;;12.84;94.17;95075.91;4989465;28;20203;-88
2023/05/15 04:15:32;;;;;;;8.73;7.93;;;;;;;12.80;94.38;95082.47;4989174;28;20681;-89
2023/05/15 04:17:58;;;;;;;9.10;7.73;;;;;;;12.82;94.30;95082.25;4974421;28;20199;-88
2023/05/15 04:20:25;;;;;;;8.10;7.30;;;;;;;12.83;94.49;95078.69;4969670;28;20208;-89
2023/05/15 04:22:57;;;;;;;8.43;7.63;;;;;;;12.78;94.76;95074.91;4969841;28;20200;-89
2023/05/15 04:25:24;;;;;;;8.43;7.63;;;;;;;12.82;94.44;95084.84;4978377;28;20202;-88
2023/05/15 04:27:50;;;;;;;8.50;7.70;;;;;;;12.83;94.45;95092.38;5000914;28;20290;-89
2023/05/15 04:30:18;;;;;;;7.93;7.13;;;;;;;12.86;94.38;95093.78;5008528;28;20222;-88
2023/05/15 04:32:44;;;;;;;8.50;7.57;;;;;;;12.86;94.31;95089.41;4990350;28;20226;-90
2023/05/15 04:35:15;;;;;;;9.07;8.17;;;;;;;12.86;94.54;95093.78;4988045;28;20208;-90
2023/05/15 04:37:45;;;;;;;8.57;7.77;;;;;;;12.87;94.27;95085.03;4988868;28;20206;-89
2023/05/15 04:40:13;;;;;;;10.47;7.80;;;;;;;12.74;94.73;95084.06;4988599;28;20206;-89
2023/05/15 04:42:42;;;;;;;8.60;7.80;;;;;;;12.81;94.69;95089.22;4988243;28;20776;-89
2023/05/15 04:45:09;;;;;;;8.27;7.47;;;;;;;12.89;94.53;95090.81;4985644;28;20197;-88
2023/05/15 04:47:38;;;;;;;7.93;7.13;;;;;;;12.91;94.53;95099.13;4988821;28;20195;-87
2023/05/15 04:50:06;;;;;;;8.07;7.37;;;;;;;12.89;94.76;95096.75;4988193;28;20238;-88
2023/05/15 04:52:34;;;;;;;7.97;7.20;;;;;;;12.89;94.56;95098.53;4982637;28;20884;-88
2023/05/15 04:55:00;;;;;;;8.33;7.47;;;;;;;12.92;94.41;95092.94;4987813;28;20839;-89
2023/05/15 04:57:27;;;;;;;8.40;7.70;;;;;;;12.95;94.17;95089.97;4982700;28;20219;-88
2023/05/15 04:59:54;;;;;;;8.30;7.50;;;;;;;12.99;94.25;95088.56;4988159;28;20191;-88
2023/05/15 05:02:21;;;;;;;8.57;7.73;;;;;;;13.00;94.35;95093.53;4987500;28;20223;-88
2023/05/15 05:04:51;;;;;;;7.90;7.10;;;;;;;13.02;94.15;95098.50;4986477;28;20554;-89
2023/05/15 05:07:18;;;;;;;8.20;7.50;;;;;;;13.03;93.61;95107.84;4985480;28;20205;-89
2023/05/15 05:09:45;;;;;;;8.40;7.60;;;;;;;13.03;94.08;95107.84;4987717;28;20215;-88
2023/05/15 05:12:11;;;;;;;8.20;7.40;;;;;;;13.05;93.77;95113.59;4987494;28;20756;-88
2023/05/15 05:14:40;;;;;;;8.07;7.27;;;;;;;13.06;93.81;95112.63;4987233;28;20208;-90
2023/05/15 05:17:08;;;;;;;8.37;7.57;;;;;;;13.06;94.08;95117.78;4984473;28;20192;-89
2023/05/15 05:19:37;;;;;;;8.40;7.33;;;;;;;13.11;93.36;95121.31;4985231;28;20195;-89
2023/05/15 05:22:06;;;;;;;8.03;7.33;;;;;;;13.16;93.24;95123.34;4988074;28;20227;-89
2023/05/15 05:24:34;;;;;;;7.23;6.60;;;;;;;13.14;93.36;95122.72;4987962;28;20199;-90
2023/05/15 05:27:01;;;;;;;7.97;7.20;;;;;;;13.12;93.60;95122.13;4987617;28;20214;-89
2023/05/15 05:29:38;;;;;;;7.80;7.00;;;;;;;13.16;93.52;95130.31;4987436;28;20219;-90
2023/05/15 05:32:07;;;;;;;23.67;11.77;;;;;;;13.17;97.73;95124.94;4987073;28;20238;-90
2023/05/15 05:34:33;;;;;;;17.07;10.33;;;;;;;13.08;100.00;95126.13;4988167;28;20203;-89
2023/05/15 05:37:00;;;;;;;9.93;8.93;;;;;;;13.10;95.74;95127.50;4985329;28;20697;-90
2023/05/15 05:39:45;;;;;;;32.63;29.10;;;;;;;13.02;95.25;95129.53;4984699;28;20978;-90
2023/05/15 05:42:12;;;;;;;10.10;9.20;;;;;;;13.02;94.37;95127.72;4986588;28;20272;-90
2023/05/15 05:44:47;;;;;;;9.73;8.60;;;;;;;13.08;94.24;95132.06;4988555;28;20210;-89
2023/05/15 05:47:32;;;;;;;9.20;7.90;;;;;;;13.12;94.37;95137.63;4988778;28;20876;-90
2023/05/15 05:49:58;;;;;;;9.43;7.80;;;;;;;13.09;94.05;95138.81;4989198;28;20226;-91
2023/05/15 05:52:52;;;;;;;8.07;7.37;;;;;;;13.08;94.64;95139.06;5008042;28;20237;-92
2023/05/15 05:55:20;;;;;;;7.90;7.20;;;;;;;13.14;94.12;95141.59;4976067;28;20207;-90
2023/05/15 05:57:46;;;;;;;8.77;7.87;;;;;;;13.18;93.45;95138.66;4992012;28;20203;-92
2023/05/15 06:00:16;;;;;;;8.63;7.67;;;;;;;13.09;94.91;95136.25;4991397;28;20610;-91
2023/05/15 06:02:43;;;;;;;8.23;7.43;;;;;;;13.08;95.02;95141.63;4991299;28;20242;-91
2023/05/15 06:05:09;;;;;;;8.63;7.60;;;;;;;13.13;94.28;95136.63;4991802;28;20285;-91
2023/05/15 06:07:46;;;;;;;8.43;7.63;;;;;;;13.14;93.89;95135.63;4991579;28;20196;-91
2023/05/15 06:13:21;;;;;;;47.43;41.50;;;;;;;13.25;93.56;95144.59;4982706;28;20676;-92
2023/05/15 06:15:47;;;;;;;11.40;10.30;;;;;;;13.28;93.36;95144.97;4991632;28;20279;-90
2023/05/15 06:18:14;;;;;;;10.90;9.90;;;;;;;13.32;94.27;95145.34;4974324;28;20196;-91
2023/05/15 06:20:41;;;;;;;9.23;8.37;;;;;;;13.40;93.19;95147.72;4985484;28;20196;-91
2023/05/15 06:23:08;;;;;;;9.27;8.40;;;;;;;13.40;93.45;95139.97;4991757;28;20200;-91
2023/05/15 06:25:42;;;;;;;9.07;8.17;;;;;;;13.42;93.50;95149.13;4991403;28;20232;-91
2023/05/15 06:28:10;;;;;;;8.27;7.47;;;;;;;13.38;93.66;95141.97;4991163;28;20253;-92
2023/05/15 06:30:38;;;;;;;7.90;7.20;;;;;;;13.40;92.81;95143.34;4990783;28;20231;-90
2023/05/15 06:33:04;;;;;;;8.10;7.40;;;;;;;13.31;93.92;95148.94;4990417;28;20199;-92
2023/05/15 06:35:31;;;;;;;8.90;8.00;;;;;;;13.33;93.32;95146.94;4990785;28;20207;-90
2023/05/15 06:38:08;;;;;;;10.10;7.80;;;;;;;13.30;92.48;95147.34;4990189;28;20218;-91
2023/05/15 06:40:35;;;;;;;9.33;7.97;;;;;;;13.33;92.03;95147.75;4990765;28;20310;-90
2023/05/15 06:43:01;;;;;;;8.83;7.37;;;;;;;13.38;91.50;95157.47;4990814;28;20238;-91
2023/05/15 06:45:28;;;;;;;8.70;7.77;;;;;;;13.40;91.70;95155.50;4996665;28;20206;-90
2023/05/15 06:48:17;;;;;;;7.70;7.00;;;;;;;13.47;91.49;95158.81;5002599;28;20202;-90
2023/05/15 06:51:10;;;;;;;8.10;7.40;;;;;;;13.51;91.52;95157.44;5010305;28;20222;-90
2023/05/15 06:54:24;;;;;;;7.97;7.17;;;;;;;13.54;91.89;95154.44;4910276;29;20214;-92
2023/05/15 06:56:50;;;;;;;8.47;7.57;;;;;;;13.58;91.08;95155.63;4936087;29;20296;-90
2023/05/15 06:59:24;;;;;;;11.87;10.77;;;;;;;13.65;90.85;95158.19;4983453;28;20208;-91
2023/05/15 07:01:57;;;;;;;13.27;11.07;;;;;;;13.73;90.44;95158.72;4990460;28;20306;-90
2023/05/15 07:04:50;;;;;;;9.77;8.77;;;;;;;13.77;91.10;95162.50;4990296;28;20643;-90
2023/05/15 07:07:17;;;;;;;8.37;7.50;;;;;;;13.74;90.29;95164.69;4990350;28;20283;-90
2023/05/15 07:09:52;;;;;;;7.30;6.60;;;;;;;13.80;89.74;95164.69;4990539;28;20279;-90
2023/05/15 07:12:33;;;;;;;7.50;6.80;;;;;;;13.92;88.35;95159.63;4990770;28;20258;-91
2023/05/15 07:15:24;;;;;;;6.07;5.57;;;;;;;14.04;87.38;95152.81;4990939;28;20644;-91
2023/05/15 07:17:52;;;;;;;6.97;6.28;;;;;;;14.15;86.97;95152.13;4989869;28;20223;-91
2023/05/15 07:20:20;;;;;;;12.80;11.57;;;;;;;14.21;86.33;95160.06;4990702;28;20235;-91
2023/05/15 07:22:47;;;;;;;10.60;9.50;;;;;;;14.23;86.05;95158.88;4992996;28;20222;-91
2023/05/15 07:25:21;;;;;;;6.03;5.53;;;;;;;14.13;86.21;95151.56;5006505;28;20252;-91
2023/05/15 07:27:48;;;;;;;7.40;6.70;;;;;;;14.17;86.40;95157.13;4990171;28;20803;-90
2023/05/15 07:30:15;;;;;;;6.57;5.97;;;;;;;14.25;86.11;95154.25;4990311;28;20219;-90
2023/05/15 07:33:15;;;;;;;7.50;6.00;;;;;;;14.30;86.32;95151.03;4990930;28;20301;-89
2023/05/15 07:39:33;;;;;;;6.53;5.82;;;;;;;14.34;85.28;95150.41;4972022;28;20226;-90
2023/05/15 07:42:00;;;;;;;6.43;5.70;;;;;;;14.52;84.92;95145.34;4996765;28;20280;-89
2023/05/15 07:45:02;;;;;;;5.63;5.15;;;;;;;14.53;84.09;95146.13;5002084;28;20199;-90
2023/05/15 07:47:32;;;;;;;6.63;5.47;;;;;;;14.61;83.48;95142.50;5002990;28;20183;-92
2023/05/15 07:49:58;;;;;;;5.57;5.07;;;;;;;14.66;81.54;95146.00;4989647;28;20227;-90
2023/05/15 07:52:31;;;;;;;5.57;5.07;;;;;;;14.78;81.30;95141.72;4988639;28;20226;-92
2023/05/15 07:55:02;;;;;;;5.43;4.93;;;;;;;14.99;81.16;95139.75;4989376;28;20207;-91
2023/05/15 07:57:41;;;;;;;5.93;4.97;;;;;;;15.16;78.03;95138.19;4989109;28;20583;-91
2023/05/15 08:03:33;;;;;;;4.95;4.55;;;;;;;15.40;77.47;95131.31;5312783;22;20727;-91
2023/05/15 08:06:29;;;;;;;4.80;4.40;;;;;;;15.39;76.36;95125.34;4872179;29;20665;-90
2023/05/15 08:08:58;;;;;;;5.25;4.75;;;;;;;15.49;75.22;95128.22;4871433;29;20291;-90
2023/05/15 08:11:25;;;;;;;4.75;4.35;;;;;;;15.54;74.70;95135.34;4871491;29;20234;-91
2023/05/15 08:13:52;;;;;;;4.78;4.38;;;;;;;15.74;72.58;95127.34;4965811;28;20208;-90
2023/05/15 08:16:29;;;;;;;5.47;4.70;;;;;;;15.81;72.92;95136.63;4969112;28;20210;-90
2023/05/15 08:19:02;;;;;;;5.45;4.95;;;;;;;15.98;72.81;95131.59;4969196;28;20192;-90
2023/05/15 08:21:38;;;;;;;5.18;4.68;;;;;;;15.98;72.49;95128.22;4968629;28;20216;-91
2023/05/15 08:24:05;;;;;;;5.05;4.57;;;;;;;15.88;73.23;95121.75;4969626;28;20218;-91
2023/05/15 08:26:36;;;;;;;4.85;4.45;;;;;;;15.74;74.58;95142.94;4969465;28;20282;-90
2023/05/15 08:29:02;;;;;;;5.55;5.05;;;;;;;15.53;76.43;95134.56;4965477;28;20211;-91
2023/05/15 08:31:29;;;;;;;5.30;4.90;;;;;;;15.46;76.36;95138.22;4972300;28;20227;-91
2023/05/15 08:34:00;;;;;;;4.85;4.35;;;;;;;15.40;76.79;95132.09;4970068;28;20200;-90
2023/05/15 08:36:46;;;;;;;4.75;4.32;;;;;;;15.36;76.85;95138.75;4969220;28;20204;-88
2023/05/15 08:39:15;;;;;;;4.80;4.40;;;;;;;15.62;75.82;95148.03;4977732;28;20211;-90
2023/05/15 08:41:51;;;;;;;4.70;4.30;;;;;;;16.00;71.53;95142.56;4969197;28;20232;-90
2023/05/15 08:44:30;;;;;;;4.70;4.30;;;;;;;16.30;71.55;95134.75;4969161;28;20203;-90
2023/05/15 08:47:07;;;;;;;4.20;3.88;;;;;;;16.46;71.45;95135.91;4968949;28;20208;-90
2023/05/15 08:49:59;;;;;;;4.85;4.28;;;;;;;16.27;70.50;95137.81;4969676;28;20204;-90
2023/05/15 08:52:36;;;;;;;4.65;4.25;;;;;;;16.36;70.26;95138.25;4969043;28;20220;-90
2023/05/15 08:55:10;;;;;;;4.35;4.05;;;;;;;16.50;69.09;95134.47;4968997;28;20574;-90
2023/05/15 08:57:47;;;;;;;5.10;4.35;;;;;;;16.99;68.10;95132.47;4969392;28;20196;-90
2023/05/15 09:03:08;;;;;;;4.30;3.90;;;;;;;16.88;66.24;95121.06;4967011;28;20685;-88
2023/05/15 09:05:46;;;;;;;4.47;4.07;;;;;;;16.64;65.70;95128.06;4970512;28;20251;-88
2023/05/15 09:08:16;;;;;;;4.97;4.50;;;;;;;16.95;66.69;95124.31;4968991;28;20200;-89
2023/05/15 09:14:01;;;;;;;3.75;3.45;;;;;;;17.01;65.13;95120.03;4943695;28;20196;-89
2023/05/15 09:16:40;;;;;;;4.60;4.20;;;;;;;16.97;64.11;95119.69;4954358;28;20574;-90
2023/05/15 09:19:10;;;;;;;4.05;3.75;;;;;;;17.04;63.41;95107.38;4968863;28;20199;-91
2023/05/15 09:21:46;;;;;;;4.30;3.90;;;;;;;16.84;64.20;95112.91;4968190;28;20226;-90
2023/05/15 09:27:12;;;;;;;4.25;3.85;;;;;;;17.78;63.66;95102.34;4934841;28;20259;-90
2023/05/15 09:32:30;;;;;;;6.53;3.97;;;;;;;18.11;62.71;95102.41;4970510;28;20326;-90
2023/05/15 09:34:58;;;;;;;5.70;4.15;;;;;;;18.10;61.73;95102.63;4977813;28;20712;-90
2023/05/15 09:37:31;;;;;;;4.30;4.00;;;;;;;18.32;59.93;95100.91;4980597;28;20201;-90
2023/05/15 09:40:17;;;;;;;4.38;4.07;;;;;;;18.77;59.48;95093.03;4973428;28;20917;-90
2023/05/15 09:43:01;;;;;;;3.65;3.35;;;;;;;19.11;57.20;95090.34;4969429;28;20241;-90
2023/05/15 09:45:47;;;;;;;;;;;;;;;;;;;;;
2023/05/15 09:48:18;;;;;;;5.10;4.63;;;;;;;18.66;57.10;95095.75;4971501;28;20200;-90
2023/05/15 09:50:45;;;;;;;3.95;3.65;;;;;;;18.75;57.04;95089.88;4971964;28;20314;-90
2023/05/15 09:53:14;;;;;;;4.55;3.90;;;;;;;18.80;56.63;95089.97;4971442;28;20211;-90
2023/05/15 09:55:50;;;;;;;5.03;4.57;;;;;;;18.60;56.24;95095.66;4971406;28;20254;-89
2023/05/15 09:58:30;;;;;;;4.00;3.60;;;;;;;18.56;56.41;95091.91;4971802;28;20207;-91
2023/05/15 10:00:59;;;;;;;4.45;4.15;;;;;;;18.47;59.00;95085.50;4972045;28;20291;-90
2023/05/15 10:03:30;;;;;;;4.50;4.20;;;;;;;19.06;58.66;95082.44;4969575;28;20251;-90
2023/05/15 10:06:00;;;;;;;10.68;9.50;;;;;;;19.47;55.10;95079.31;4970477;28;20207;-90
2023/05/15 10:08:37;;;;;;;6.40;5.90;;;;;;;19.61;55.66;95082.38;4970659;28;20608;-90
2023/05/15 10:11:05;;;;;;;4.82;4.07;;;;;;;19.64;56.11;95074.81;4966288;28;20815;-90
2023/05/15 10:13:37;;;;;;;4.95;4.50;;;;;;;19.47;54.95;95073.28;4969934;28;20700;-90
2023/05/15 10:16:11;;;;;;;4.20;3.90;;;;;;;19.09;56.29;95068.94;4968455;28;20674;-89
2023/05/15 10:18:40;;;;;;;4.28;3.97;;;;;;;18.89;56.13;95069.44;4951526;28;20215;-90
2023/05/15 10:21:10;;;;;;;4.82;4.32;;;;;;;18.65;57.07;95062.88;4968774;28;20227;-90
2023/05/15 10:23:37;;;;;;;4.85;4.28;;;;;;;18.37;58.15;95061.13;4970405;28;20208;-90
2023/05/15 10:26:10;;;;;;;4.75;4.35;;;;;;;18.06;58.88;95058.03;4959549;28;20236;-90
2023/05/15 10:28:38;;;;;;;5.38;4.50;;;;;;;17.88;60.52;95058.25;4969380;28;20227;-90
2023/05/15 10:31:07;;;;;;;5.43;4.70;;;;;;;18.37;59.41;95053.28;4980079;28;20232;-89
2023/05/15 10:33:46;;;;;;;4.38;4.00;;;;;;;19.00;59.44;95047.69;4978884;28;20192;-90
2023/05/15 10:36:14;;;;;;;6.03;4.38;;;;;;;19.50;56.60;95044.91;4951352;29;20232;-90
2023/05/15 10:38:42;;;;;;;4.35;3.95;;;;;;;19.75;54.14;95046.22;4967586;28;20200;-90
2023/05/15 10:41:14;;;;;;;4.03;3.72;;;;;;;20.10;54.85;95043.91;4969268;28;20220;-89
2023/05/15 10:43:42;;;;;;;5.10;4.10;;;;;;;19.87;54.67;95036.38;4969876;28;20207;-89
2023/05/15 10:46:10;;;;;;;4.72;4.10;;;;;;;19.26;55.54;95033.91;4970317;28;20196;-90
2023/05/15 10:48:38;;;;;;;4.55;4.15;;;;;;;18.91;57.43;95036.09;4970339;28;20200;-89
2023/05/15 10:51:04;;;;;;;4.82;4.43;;;;;;;18.48;57.49;95036.75;4969533;28;20235;-90
2023/05/15 10:53:32;;;;;;;5.22;4.72;;;;;;;18.19;58.54;95038.69;4969914;28;20195;-89
2023/05/15 10:55:59;;;;;;;5.43;4.82;;;;;;;18.05;60.13;95032.22;4967127;28;20286;-90
2023/05/15 10:58:30;;;;;;;5.00;4.60;;;;;;;17.94;60.85;95031.25;4969640;28;20242;-89
2023/05/15 11:00:57;;;;;;;4.50;4.20;;;;;;;17.95;61.45;95036.22;4969547;28;20581;-90
2023/05/15 11:03:42;;;;;;;4.85;4.45;;;;;;;18.07;61.83;95025.75;4932498;28;1068050;-89
2023/05/15 11:06:09;;;;;;;4.32;4.00;;;;;;;18.35;60.04;95024.88;4971449;28;20212;-90
2023/05/15 11:08:36;;;;;;;4.70;4.32;;;;;;;18.81;58.73;95015.09;4972151;28;20240;-89
2023/05/15 11:11:03;;;;;;;4.35;3.95;;;;;;;18.91;56.50;95015.22;4972224;28;20231;-89
2023/05/15 11:17:02;;;;;;;3.05;2.85;;;;;;;18.47;54.27;95019.56;4911609;29;20280;-90
2023/05/15 11:19:35;;;;;;;3.03;2.83;;;;;;;18.26;55.84;95021.88;4957166;28;20383;-89
2023/05/15 11:22:03;;;;;;;3.92;3.63;;;;;;;18.04;57.71;95023.63;4970854;28;20220;-89
2023/05/15 11:24:31;;;;;;;3.97;3.67;;;;;;;18.01;58.93;95018.88;4969785;28;20208;-88
2023/05/15 11:27:07;;;;;;;4.25;3.72;;;;;;;17.89;62.32;95028.59;4958216;28;20200;-90
2023/05/15 11:29:34;;;;;;;4.53;4.13;;;;;;;17.76;63.54;95028.84;4966788;28;20200;-90
2023/05/15 11:32:31;;;;;;;3.97;3.67;;;;;;;17.69;64.22;95018.63;4970152;28;20220;-89
2023/05/15 11:35:11;;;;;;;3.75;3.45;;;;;;;17.61;63.15;95014.53;4972305;28;20208;-89
2023/05/15 11:37:41;;;;;;;4.35;3.80;;;;;;;17.55;62.04;95012.84;4971239;28;20259;-89
2023/05/15 11:40:12;;;;;;;4.55;4.15;;;;;;;17.53;62.22;95009.69;4972311;28;20208;-89
2023/05/15 11:42:42;;;;;;;3.63;3.35;;;;;;;17.52;63.04;95004.72;4970360;28;20212;-90
2023/05/15 11:45:13;;;;;;;4.05;3.75;;;;;;;17.52;62.88;95013.31;4970756;28;20205;-89
2023/05/15 11:47:45;;;;;;;4.30;3.95;;;;;;;17.50;63.11;95004.97;4970501;28;20720;-89
2023/05/15 11:50:22;;;;;;;4.30;3.92;;;;;;;17.49;62.74;95005.22;4970303;28;20665;-89
2023/05/15 11:52:50;;;;;;;4.78;4.38;;;;;;;17.50;62.69;94999.78;4970922;28;20234;-89
2023/05/15 11:55:21;;;;;;;4.32;4.03;;;;;;;17.50;62.68;95009.38;4970055;28;20211;-89
2023/05/15 11:57:50;;;;;;;3.90;3.60;;;;;;;17.38;61.72;95008.63;4970968;28;20674;-89
2023/05/15 12:00:17;;;;;;;4.40;4.03;;;;;;;17.20;62.29;95025.22;4969987;28;20279;-89
2023/05/15 12:02:46;;;;;;;4.82;4.43;;;;;;;17.03;65.02;95038.16;4949930;28;20233;-90
2023/05/15 12:05:34;;;;;;;5.65;4.75;;;;;;;16.92;68.72;95033.78;4967366;28;20200;-90
2023/05/15 12:08:09;;;;;;;5.38;4.88;;;;;;;16.89;70.46;95037.63;4971272;28;20290;-90
2023/05/15 12:10:47;;;;;;;6.80;4.85;;;;;;;16.74;74.40;95036.53;4963708;28;20277;-90
2023/05/15 12:13:15;;;;;;;4.80;4.40;;;;;;;16.58;73.70;95035.34;4967856;28;20219;-89
2023/05/15 12:16:10;;;;;;;;;;;;;;;;;;;;;
2023/05/15 12:21:31;;;;;;;4.68;4.10;;;;;;;16.34;73.71;95059.78;4954284;28;20856;-89